createdAt,value
2019-05-17T00:01:07.618Z,11.66
2019-05-17T00:03:37.501Z,11.58
2019-05-17T00:06:07.130Z,11.71
2019-05-17T00:08:38.207Z,11.61
2019-05-17T00:11:08.338Z,11.57
2019-05-17T00:13:38.890Z,11.47
2019-05-17T00:16:08.678Z,11.37
2019-05-17T00:18:38.299Z,11.53
2019-05-17T00:21:07.955Z,11.47
2019-05-17T00:23:37.688Z,11.45
2019-05-17T00:26:07.464Z,11.31
2019-05-17T00:28:37.597Z,11.38
2019-05-17T00:31:07.615Z,11.20
2019-05-17T00:33:37.316Z,11.08
2019-05-17T00:36:07.191Z,11.08
2019-05-17T00:38:47.883Z,11.08
2019-05-17T00:41:08.330Z,11.14
2019-05-17T00:43:37.935Z,11.07
2019-05-17T00:46:07.657Z,11.11
2019-05-17T00:48:37.467Z,11.11
2019-05-17T00:51:10.287Z,11.18
2019-05-17T00:53:38.599Z,11.08
2019-05-17T00:56:08.223Z,11.03
2019-05-17T00:58:37.874Z,11.15
2019-05-17T01:01:08.467Z,11.11
2019-05-17T01:03:38.339Z,11.04
2019-05-17T01:06:07.971Z,10.92
2019-05-17T01:08:37.632Z,10.82
2019-05-17T01:11:07.517Z,10.75
2019-05-17T01:13:37.578Z,10.75
2019-05-17T01:16:07.555Z,10.88
2019-05-17T01:18:37.366Z,10.87
2019-05-17T01:21:08.133Z,10.92
2019-05-17T01:23:37.761Z,10.78
2019-05-17T01:26:07.731Z,10.76
2019-05-17T01:28:37.454Z,10.72
2019-05-17T01:31:07.111Z,10.78
2019-05-17T01:33:36.995Z,10.87
2019-05-17T01:36:07.043Z,10.76
2019-05-17T01:38:37.734Z,10.71
2019-05-17T01:41:07.586Z,10.57
2019-05-17T01:43:37.217Z,10.49
2019-05-17T01:46:06.929Z,10.55
2019-05-17T01:48:36.776Z,10.51
2019-05-17T01:51:07.533Z,10.45
2019-05-17T01:53:37.426Z,10.35
2019-05-17T01:56:07.123Z,10.25
2019-05-17T01:58:36.769Z,10.28
2019-05-17T02:01:07.628Z,10.29
2019-05-17T02:03:37.710Z,10.23
2019-05-17T02:06:07.732Z,10.20
2019-05-17T02:08:37.532Z,10.23
2019-05-17T02:11:07.220Z,10.23
2019-05-17T02:13:37.556Z,10.36
2019-05-17T02:16:07.622Z,10.32
2019-05-17T02:18:37.463Z,10.24
2019-05-17T02:21:07.325Z,10.15
2019-05-17T02:23:37.345Z,10.29
2019-05-17T02:26:07.418Z,10.15
2019-05-17T02:28:37.106Z,10.17
2019-05-17T02:31:06.891Z,10.31
2019-05-17T02:33:36.730Z,10.15
2019-05-17T02:36:06.437Z,10.09
2019-05-17T02:38:36.061Z,10.06
2019-05-17T02:41:05.776Z,10.09
2019-05-17T02:43:35.565Z,10.08
2019-05-17T02:46:05.517Z,10.31
2019-05-17T02:48:35.161Z,10.19
2019-05-17T02:51:04.845Z,10.02
2019-05-17T02:53:34.551Z,9.91
2019-05-17T02:56:04.243Z,9.82
2019-05-17T02:58:33.885Z,10.02
2019-05-17T03:01:04.213Z,9.87
2019-05-17T03:03:33.950Z,9.80
2019-05-17T03:06:03.724Z,9.77
2019-05-17T03:08:34.352Z,9.99
2019-05-17T03:11:04.926Z,10.04
2019-05-17T03:13:34.562Z,9.88
2019-05-17T03:16:04.439Z,9.75
2019-05-17T03:18:34.156Z,9.74
2019-05-17T03:21:04.388Z,9.83
2019-05-17T03:23:34.413Z,9.66
2019-05-17T03:26:04.238Z,9.93
2019-05-17T03:28:34.321Z,10.09
2019-05-17T03:31:07.678Z,9.91
2019-05-17T03:33:37.556Z,9.78
2019-05-17T03:36:07.786Z,9.59
2019-05-17T03:38:37.628Z,9.60
2019-05-17T03:41:18.249Z,9.53
2019-05-17T03:43:41.243Z,9.60
2019-05-17T03:46:13.589Z,9.64
2019-05-17T03:48:43.586Z,9.83
2019-05-17T03:51:13.565Z,9.70
2019-05-17T03:53:44.207Z,9.56
2019-05-17T03:56:14.210Z,9.57
2019-05-17T03:58:43.914Z,9.59
2019-05-17T04:01:14.273Z,9.79
2019-05-17T04:03:44.428Z,9.53
2019-05-17T04:06:14.120Z,9.44
2019-05-17T04:08:43.768Z,9.44
2019-05-17T04:11:26.640Z,9.37
2019-05-17T04:13:44.756Z,9.42
2019-05-17T04:16:14.474Z,9.45
2019-05-17T04:18:44.295Z,9.55
2019-05-17T04:21:13.914Z,9.55
2019-05-17T04:23:43.559Z,9.47
2019-05-17T04:26:13.708Z,9.33
2019-05-17T04:28:44.250Z,9.38
2019-05-17T04:31:14.089Z,9.35
2019-05-17T04:33:43.739Z,9.32
2019-05-17T04:36:13.517Z,9.33
2019-05-17T04:38:43.743Z,9.33
2019-05-17T04:41:13.602Z,9.30
2019-05-17T04:43:43.438Z,9.23
2019-05-17T04:46:13.254Z,9.16
2019-05-17T04:48:43.927Z,9.23
2019-05-17T04:51:13.946Z,9.32
2019-05-17T04:53:43.540Z,9.29
2019-05-17T04:56:14.137Z,9.20
2019-05-17T04:58:44.158Z,9.27
2019-05-17T05:01:13.816Z,9.27
2019-05-17T05:03:43.466Z,9.26
2019-05-17T05:06:13.610Z,9.25
2019-05-17T05:08:43.427Z,9.25
2019-05-17T05:11:13.111Z,9.27
2019-05-17T05:13:42.862Z,9.28
2019-05-17T05:16:13.426Z,9.29
2019-05-17T05:18:43.464Z,9.31
2019-05-17T05:21:13.156Z,9.33
2019-05-17T05:23:42.786Z,9.34
2019-05-17T05:26:12.491Z,9.37
2019-05-17T05:28:42.153Z,9.42
2019-05-17T05:31:13.254Z,9.41
2019-05-17T05:33:43.158Z,9.44
2019-05-17T05:36:12.789Z,9.48
2019-05-17T05:38:42.433Z,9.52
2019-05-17T05:41:12.303Z,9.59
2019-05-17T05:43:42.160Z,9.67
2019-05-17T05:46:11.855Z,9.75
2019-05-17T05:48:41.713Z,9.75
2019-05-17T05:51:13.686Z,9.74
2019-05-17T05:53:42.871Z,9.77
2019-05-17T05:56:13.276Z,9.82
2019-05-17T05:58:43.218Z,9.81
2019-05-17T06:01:13.028Z,9.85
2019-05-17T06:03:42.750Z,9.93
2019-05-17T06:06:12.560Z,9.95
2019-05-17T06:08:42.170Z,9.98
2019-05-17T06:11:12.350Z,10.05
2019-05-17T06:13:42.091Z,10.09
2019-05-17T06:16:12.084Z,10.10
2019-05-17T06:18:42.505Z,10.12
2019-05-17T06:21:12.381Z,10.14
2019-05-17T06:23:42.553Z,10.20
2019-05-17T06:26:12.622Z,10.23
2019-05-17T06:28:42.804Z,10.25
2019-05-17T06:31:15.036Z,10.29
2019-05-17T06:33:43.811Z,10.31
2019-05-17T06:36:13.798Z,10.42
2019-05-17T06:38:43.655Z,10.41
2019-05-17T06:41:13.289Z,10.47
2019-05-17T06:43:42.927Z,10.51
2019-05-17T06:46:12.608Z,10.54
2019-05-17T06:48:42.498Z,10.60
2019-05-17T06:51:12.279Z,10.63
2019-05-17T06:53:43.606Z,10.76
2019-05-17T06:56:13.429Z,10.78
2019-05-17T06:58:43.056Z,10.79
2019-05-17T07:01:12.716Z,10.87
2019-05-17T07:03:42.343Z,10.96
2019-05-17T07:06:13.645Z,10.94
2019-05-17T07:08:43.263Z,10.98
2019-05-17T07:11:12.928Z,11.05
2019-05-17T07:13:42.550Z,11.16
2019-05-17T07:16:12.884Z,11.21
2019-05-17T07:18:42.585Z,11.29
2019-05-17T07:21:12.217Z,11.41
2019-05-17T07:23:42.140Z,11.48
2019-05-17T07:26:12.162Z,11.47
2019-05-17T07:28:41.898Z,11.49
2019-05-17T07:31:11.531Z,11.55
2019-05-17T07:33:41.178Z,11.68
2019-05-17T07:36:10.810Z,11.66
2019-05-17T07:38:40.458Z,11.66
2019-05-17T07:41:10.265Z,11.73
2019-05-17T07:43:40.533Z,11.78
2019-05-17T07:46:10.293Z,11.78
2019-05-17T07:48:40.499Z,11.84
2019-05-17T07:51:10.432Z,11.95
2019-05-17T07:53:40.247Z,11.98
2019-05-17T07:56:10.378Z,12.07
2019-05-17T07:58:40.534Z,12.14
2019-05-17T08:01:10.271Z,12.24
2019-05-17T08:03:40.608Z,12.29
2019-05-17T08:06:10.884Z,12.31
2019-05-17T08:08:41.033Z,12.30
2019-05-17T08:11:10.968Z,12.41
2019-05-17T08:13:40.592Z,12.46
2019-05-17T08:16:10.483Z,12.44
2019-05-17T08:18:40.384Z,12.54
2019-05-17T08:21:10.455Z,12.52
2019-05-17T08:23:40.338Z,12.54
2019-05-17T08:26:10.643Z,12.60
2019-05-17T08:28:40.769Z,12.63
2019-05-17T08:31:10.479Z,12.77
2019-05-17T08:33:40.604Z,12.87
2019-05-17T08:36:10.676Z,13.05
2019-05-17T08:38:40.336Z,13.15
2019-05-17T08:41:10.543Z,13.12
2019-05-17T08:43:46.604Z,13.18
2019-05-17T08:46:11.742Z,13.48
2019-05-17T08:48:41.397Z,13.41
2019-05-17T08:51:11.182Z,13.44
2019-05-17T08:53:40.893Z,13.41
2019-05-17T08:56:10.661Z,13.59
2019-05-17T08:58:40.552Z,13.71
2019-05-17T09:01:11.203Z,13.72
2019-05-17T09:03:41.344Z,13.77
2019-05-17T09:06:12.540Z,13.80
2019-05-17T09:08:42.529Z,13.88
2019-05-17T09:11:12.167Z,13.92
2019-05-17T09:13:54.649Z,13.97
2019-05-17T09:16:13.167Z,14.05
2019-05-17T09:18:42.787Z,14.17
2019-05-17T09:21:12.496Z,14.14
2019-05-17T09:23:42.919Z,14.19
2019-05-17T09:26:12.578Z,14.19
2019-05-17T09:28:42.204Z,14.36
2019-05-17T09:31:11.832Z,14.33
2019-05-17T09:33:41.479Z,14.36
2019-05-17T09:36:11.469Z,14.43
2019-05-17T09:38:41.103Z,14.48
2019-05-17T09:41:10.737Z,14.68
2019-05-17T09:43:40.425Z,14.67
2019-05-17T09:46:10.766Z,14.62
2019-05-17T09:48:40.647Z,14.72
2019-05-17T09:51:10.600Z,14.83
2019-05-17T09:53:40.325Z,14.75
2019-05-17T09:56:10.096Z,14.82
2019-05-17T09:58:40.044Z,15.00
2019-05-17T10:01:10.017Z,15.02
2019-05-17T10:03:39.879Z,15.12
2019-05-17T10:06:09.866Z,15.27
2019-05-17T10:08:39.565Z,15.32
2019-05-17T10:11:11.989Z,15.56
2019-05-17T10:13:40.573Z,15.62
2019-05-17T10:16:10.256Z,15.59
2019-05-17T10:18:40.206Z,15.62
2019-05-17T10:21:10.499Z,15.71
2019-05-17T10:23:40.797Z,15.73
2019-05-17T10:26:10.541Z,15.68
2019-05-17T10:28:40.194Z,15.66
2019-05-17T10:31:11.662Z,15.66
2019-05-17T10:33:41.256Z,15.93
2019-05-17T10:36:10.877Z,15.91
2019-05-17T10:38:40.531Z,15.94
2019-05-17T10:41:10.333Z,15.99
2019-05-17T10:43:40.003Z,16.38
2019-05-17T10:46:10.548Z,16.50
2019-05-17T10:48:41.251Z,16.62
2019-05-17T10:51:13.411Z,16.96
2019-05-17T10:53:42.551Z,17.21
2019-05-17T10:56:12.270Z,17.38
2019-05-17T10:58:42.261Z,17.42
2019-05-17T11:01:11.909Z,17.57
2019-05-17T11:03:41.529Z,17.54
2019-05-17T11:06:11.257Z,17.51
2019-05-17T11:08:40.997Z,17.56
2019-05-17T11:11:10.756Z,17.61
2019-05-17T11:13:40.400Z,17.49
2019-05-17T11:16:10.015Z,17.56
2019-05-17T11:18:39.827Z,17.72
2019-05-17T11:21:09.847Z,17.91
2019-05-17T11:23:39.502Z,17.88
2019-05-17T11:26:09.204Z,18.04
2019-05-17T11:28:38.857Z,18.38
2019-05-17T11:31:08.547Z,18.69
2019-05-17T11:33:38.200Z,18.88
2019-05-17T11:36:07.824Z,19.38
2019-05-17T11:38:37.493Z,19.58
2019-05-17T11:41:20.540Z,19.52
2019-05-17T11:43:38.519Z,19.29
2019-05-17T11:46:08.352Z,19.22
2019-05-17T11:48:38.013Z,19.44
2019-05-17T11:51:07.655Z,19.56
2019-05-17T11:53:37.338Z,19.83
2019-05-17T11:56:07.190Z,20.01
2019-05-17T11:58:36.812Z,20.14
2019-05-17T12:01:06.467Z,20.00
2019-05-17T12:03:36.090Z,20.18
2019-05-17T12:06:05.960Z,20.65
2019-05-17T12:08:35.588Z,20.82
2019-05-17T12:11:05.370Z,21.08
2019-05-17T12:13:34.997Z,21.16
2019-05-17T12:16:04.873Z,21.41
2019-05-17T12:18:34.528Z,21.79
2019-05-17T12:21:04.196Z,21.64
2019-05-17T12:23:33.823Z,21.82
2019-05-17T12:26:03.511Z,21.67
2019-05-17T12:28:33.159Z,21.23
2019-05-17T12:31:02.792Z,21.21
2019-05-17T12:33:32.498Z,20.84
2019-05-17T12:36:02.126Z,20.51
2019-05-17T12:38:31.769Z,20.39
2019-05-17T12:41:01.388Z,20.23
2019-05-17T12:43:31.031Z,20.45
2019-05-17T12:46:01.797Z,20.34
2019-05-17T12:48:31.590Z,20.37
2019-05-17T12:51:01.215Z,20.49
2019-05-17T12:53:30.840Z,20.54
2019-05-17T12:56:00.489Z,20.64
2019-05-17T12:58:30.109Z,20.32
2019-05-17T13:00:59.754Z,20.05
2019-05-17T13:03:29.389Z,19.78
2019-05-17T13:05:59.031Z,19.73
2019-05-17T13:08:28.659Z,19.42
2019-05-17T13:10:58.305Z,19.59
2019-05-17T13:13:28.001Z,19.64
2019-05-17T13:15:57.673Z,19.67
2019-05-17T13:18:27.287Z,19.88
2019-05-17T13:20:56.908Z,20.48
2019-05-17T13:23:26.556Z,20.71
2019-05-17T13:25:56.172Z,20.69
2019-05-17T13:28:25.818Z,20.78
2019-05-17T13:30:55.441Z,20.92
2019-05-17T13:33:28.537Z,20.72
2019-05-17T13:35:56.452Z,20.57
2019-05-17T13:38:26.098Z,20.64
2019-05-17T13:40:55.748Z,20.45
2019-05-17T13:43:25.417Z,20.26
2019-05-17T13:45:55.103Z,20.10
2019-05-17T13:48:24.744Z,20.11
2019-05-17T13:50:54.427Z,19.98
2019-05-17T13:53:24.049Z,19.93
2019-05-17T13:55:53.806Z,19.88
2019-05-17T13:58:23.445Z,19.79
2019-05-17T14:00:53.095Z,19.69
2019-05-17T14:03:22.724Z,19.65
2019-05-17T14:05:52.370Z,19.89
2019-05-17T14:08:22.002Z,19.77
2019-05-17T14:10:51.641Z,19.61
2019-05-17T14:13:21.268Z,19.06
2019-05-17T14:15:50.879Z,18.91
2019-05-17T14:18:21.012Z,18.91
2019-05-17T14:20:50.628Z,19.07
2019-05-17T14:23:20.282Z,19.04
2019-05-17T14:25:49.895Z,19.03
2019-05-17T14:28:19.557Z,18.97
2019-05-17T14:30:49.165Z,19.20
2019-05-17T14:33:18.810Z,19.39
2019-05-17T14:35:48.425Z,19.43
2019-05-17T14:38:18.112Z,19.39
2019-05-17T14:41:05.677Z,19.49
2019-05-17T14:43:19.524Z,19.60
2019-05-17T14:45:49.210Z,19.75
2019-05-17T14:48:18.862Z,19.92
2019-05-17T14:50:48.508Z,20.08
2019-05-17T14:53:18.192Z,20.08
2019-05-17T14:55:47.859Z,20.19
2019-05-17T14:58:17.498Z,20.16
2019-05-17T15:00:47.124Z,20.04
2019-05-17T15:03:16.831Z,20.09
2019-05-17T15:05:46.501Z,20.09
2019-05-17T15:08:16.515Z,20.00
2019-05-17T15:10:46.140Z,19.81
2019-05-17T15:13:15.846Z,19.52
2019-05-17T15:15:45.503Z,19.25
2019-05-17T15:18:15.146Z,19.17
2019-05-17T15:20:44.835Z,19.00
2019-05-17T15:23:14.479Z,18.85
2019-05-17T15:25:44.102Z,18.80
2019-05-17T15:28:13.751Z,18.58
2019-05-17T15:30:43.370Z,18.50
2019-05-17T15:33:13.046Z,18.42
2019-05-17T15:35:42.722Z,18.54
2019-05-17T15:38:12.411Z,18.45
2019-05-17T15:40:42.594Z,18.33
2019-05-17T15:43:12.281Z,18.31
2019-05-17T15:45:41.996Z,18.16
2019-05-17T15:48:11.738Z,17.98
2019-05-17T15:50:41.557Z,17.86
2019-05-17T15:53:11.182Z,17.76
2019-05-17T15:55:40.829Z,17.58
2019-05-17T15:58:10.450Z,17.55
2019-05-17T16:00:40.170Z,17.48
2019-05-17T16:03:09.795Z,17.37
2019-05-17T16:05:39.446Z,17.56
2019-05-17T16:08:09.077Z,17.67
2019-05-17T16:10:39.638Z,17.61
2019-05-17T16:13:09.397Z,17.51
2019-05-17T16:15:39.042Z,17.08
2019-05-17T16:18:08.664Z,17.07
2019-05-17T16:20:38.280Z,17.02
2019-05-17T16:23:08.028Z,16.83
2019-05-17T16:25:38.447Z,16.92
2019-05-17T16:28:08.098Z,16.85
2019-05-17T16:30:37.717Z,16.81
2019-05-17T16:33:07.439Z,16.81
2019-05-17T16:35:37.070Z,16.68
2019-05-17T16:38:06.719Z,16.59
2019-05-17T16:40:36.368Z,16.53
2019-05-17T16:43:17.572Z,16.42
2019-05-17T16:45:37.555Z,16.42
2019-05-17T16:48:07.358Z,16.29
2019-05-17T16:50:37.005Z,16.17
2019-05-17T16:53:07.038Z,16.18
2019-05-17T16:55:36.775Z,16.18
2019-05-17T16:58:06.604Z,16.29
2019-05-17T17:00:42.405Z,16.39
2019-05-17T17:03:12.162Z,16.42
2019-05-17T17:05:42.000Z,16.48
2019-05-17T17:08:11.732Z,16.34
2019-05-17T17:10:41.410Z,16.30
2019-05-17T17:13:11.195Z,16.29
2019-05-17T17:15:40.885Z,16.24
2019-05-17T17:18:10.670Z,16.23
2019-05-17T17:20:40.296Z,16.29
2019-05-17T17:23:10.014Z,16.24
2019-05-17T17:25:39.698Z,16.20
2019-05-17T17:28:09.458Z,16.14
2019-05-17T17:30:39.112Z,16.16
2019-05-17T17:33:08.733Z,16.15
2019-05-17T17:35:38.381Z,16.12
2019-05-17T17:38:08.000Z,16.12
2019-05-17T17:40:37.725Z,16.10
2019-05-17T17:43:07.426Z,16.10
2019-05-17T17:45:37.384Z,16.23
2019-05-17T17:48:07.284Z,16.17
2019-05-17T17:50:36.930Z,16.07
2019-05-17T17:53:08.177Z,15.99
2019-05-17T17:55:38.312Z,15.97
2019-05-17T17:58:08.010Z,15.91
2019-05-17T18:00:37.754Z,15.89
2019-05-17T18:03:07.430Z,15.97
2019-05-17T18:05:37.051Z,15.89
2019-05-17T18:08:06.842Z,15.86
2019-05-17T18:10:36.776Z,15.81
2019-05-17T18:13:06.426Z,15.80
2019-05-17T18:15:46.233Z,15.83
2019-05-17T18:18:16.712Z,15.87
2019-05-17T18:20:46.486Z,15.73
2019-05-17T18:23:20.925Z,15.75
2019-05-17T18:25:47.664Z,15.70
2019-05-17T18:28:17.389Z,15.66
2019-05-17T18:30:47.051Z,15.64
2019-05-17T18:33:16.750Z,15.62
2019-05-17T18:35:46.532Z,15.73
2019-05-17T18:38:19.764Z,15.65
2019-05-17T18:40:49.440Z,15.52
2019-05-17T18:43:19.198Z,15.59
2019-05-17T18:45:49.013Z,15.58
2019-05-17T18:48:18.785Z,15.60
2019-05-17T18:50:48.559Z,15.80
2019-05-17T18:53:18.261Z,15.69
2019-05-17T18:55:48.028Z,15.48
2019-05-17T18:58:17.724Z,15.36
2019-05-17T19:00:47.721Z,15.31
2019-05-17T19:03:17.435Z,15.27
2019-05-17T19:05:47.053Z,15.29
2019-05-17T19:08:16.694Z,15.14
2019-05-17T19:10:46.462Z,15.26
2019-05-17T19:13:16.102Z,15.22
2019-05-17T19:15:46.466Z,15.17
2019-05-17T19:18:16.252Z,15.15
2019-05-17T19:20:46.115Z,15.08
2019-05-17T19:23:15.828Z,15.11
2019-05-17T19:25:45.470Z,15.17
2019-05-17T19:28:15.106Z,15.11
2019-05-17T19:30:44.732Z,15.07
2019-05-17T19:33:14.403Z,14.98
2019-05-17T19:35:44.023Z,15.11
2019-05-17T19:38:13.722Z,15.00
2019-05-17T19:40:43.442Z,15.02
2019-05-17T19:43:13.059Z,14.88
2019-05-17T19:45:44.706Z,14.84
2019-05-17T19:48:14.341Z,14.84
2019-05-17T19:50:44.202Z,14.95
2019-05-17T19:53:13.828Z,14.85
2019-05-17T19:55:43.538Z,15.04
2019-05-17T19:58:13.165Z,14.86
2019-05-17T20:00:42.895Z,14.82
2019-05-17T20:03:12.515Z,14.71
2019-05-17T20:05:42.138Z,14.66
2019-05-17T20:08:11.780Z,14.58
2019-05-17T20:10:41.570Z,14.53
2019-05-17T20:13:11.211Z,14.67
2019-05-17T20:15:40.981Z,14.43
2019-05-17T20:18:11.078Z,14.38
2019-05-17T20:20:40.856Z,14.37
2019-05-17T20:23:10.501Z,14.36
2019-05-17T20:25:40.152Z,14.32
2019-05-17T20:28:09.792Z,14.31
2019-05-17T20:30:39.421Z,14.47
2019-05-17T20:33:09.087Z,14.45
2019-05-17T20:35:38.703Z,14.56
2019-05-17T20:38:08.352Z,14.44
2019-05-17T20:40:38.193Z,14.34
2019-05-17T20:43:07.813Z,14.31
2019-05-17T20:45:37.524Z,14.31
2019-05-17T20:48:07.138Z,14.33
2019-05-17T20:50:36.861Z,14.42
2019-05-17T20:53:17.836Z,14.48
2019-05-17T20:55:37.876Z,14.44
2019-05-17T20:58:07.502Z,14.37
2019-05-17T21:00:37.259Z,14.34
2019-05-17T21:03:06.919Z,14.31
2019-05-17T21:05:36.530Z,14.24
2019-05-17T21:08:06.243Z,14.24
2019-05-17T21:10:35.860Z,14.27
2019-05-17T21:13:05.582Z,14.23
2019-05-17T21:15:47.008Z,14.23
2019-05-17T21:18:06.656Z,14.19
2019-05-17T21:20:36.273Z,14.17
2019-05-17T21:23:05.971Z,14.17
2019-05-17T21:25:35.658Z,14.16
2019-05-17T21:28:05.315Z,14.12
2019-05-17T21:30:35.026Z,14.11
2019-05-17T21:33:04.725Z,14.10
2019-05-17T21:35:34.356Z,14.08
2019-05-17T21:38:04.052Z,14.15
2019-05-17T21:40:33.695Z,14.16
2019-05-17T21:43:03.305Z,14.10
2019-05-17T21:45:32.954Z,14.04
2019-05-17T21:48:02.572Z,14.02
2019-05-17T21:50:32.240Z,14.02
2019-05-17T21:53:03.507Z,14.06
2019-05-17T21:55:33.120Z,13.98
2019-05-17T21:58:02.836Z,13.98
2019-05-17T22:01:04.636Z,13.95
2019-05-17T22:03:34.255Z,13.99
2019-05-17T22:06:03.875Z,13.92
2019-05-17T22:08:33.518Z,13.88
2019-05-17T22:11:03.156Z,13.86
2019-05-17T22:13:32.936Z,13.87
2019-05-17T22:16:17.133Z,13.83
2019-05-17T22:18:34.057Z,13.87
2019-05-17T22:21:03.670Z,13.96
2019-05-17T22:23:33.316Z,13.90
2019-05-17T22:26:02.934Z,13.90
2019-05-17T22:28:32.562Z,13.87
2019-05-17T22:31:02.951Z,13.68
2019-05-17T22:33:32.570Z,13.70
2019-05-17T22:36:02.214Z,13.77
2019-05-17T22:38:31.835Z,13.75
2019-05-17T22:41:01.506Z,13.68
2019-05-17T22:43:31.129Z,13.68
2019-05-17T22:46:00.774Z,13.69
2019-05-17T22:48:30.395Z,13.75
2019-05-17T22:51:00.044Z,13.71
2019-05-17T22:53:29.665Z,13.71
2019-05-17T22:55:59.278Z,13.64
2019-05-17T22:58:28.941Z,13.66
2019-05-17T23:00:58.561Z,13.55
2019-05-17T23:03:28.207Z,13.60
2019-05-17T23:05:57.822Z,13.52
2019-05-17T23:08:27.479Z,13.55
2019-05-17T23:10:57.106Z,13.57
2019-05-17T23:13:26.743Z,13.55
2019-05-17T23:16:03.954Z,13.58
2019-05-17T23:18:34.911Z,13.53
2019-05-17T23:21:04.941Z,13.52
2019-05-17T23:23:34.715Z,13.58
2019-05-17T23:26:04.482Z,13.57
2019-05-17T23:28:34.143Z,13.64
2019-05-17T23:31:03.827Z,13.66
2019-05-17T23:33:33.453Z,13.66
2019-05-17T23:36:03.186Z,13.60
2019-05-17T23:38:32.812Z,13.57
2019-05-17T23:41:02.460Z,13.61
2019-05-17T23:43:32.080Z,13.58
2019-05-17T23:46:01.717Z,13.57
2019-05-17T23:48:31.346Z,13.62
2019-05-17T23:51:00.988Z,13.62
2019-05-17T23:53:30.607Z,13.54
2019-05-17T23:56:00.251Z,13.62
2019-05-17T23:58:29.883Z,13.50
